sensor_id;sensor_type;location;lat;lon;timestamp;temperature;humidity
55203;DHT22;41077;52.956;6.796;2022-12-07T00:01:40;3.90;99.90
55203;DHT22;41077;52.956;6.796;2022-12-07T00:04:09;3.80;99.90
55203;DHT22;41077;52.956;6.796;2022-12-07T00:06:43;3.80;99.90
55203;DHT22;41077;52.956;6.796;2022-12-07T00:09:14;3.80;99.90
55203;DHT22;41077;52.956;6.796;2022-12-07T00:11:40;3.80;99.90
55203;DHT22;41077;52.956;6.796;2022-12-07T00:14:10;3.80;99.90
55203;DHT22;41077;52.956;6.796;2022-12-07T00:16:36;3.70;99.90
55203;DHT22;41077;52.956;6.796;2022-12-07T00:19:03;3.70;99.90
55203;DHT22;41077;52.956;6.796;2022-12-07T00:21:33;3.70;99.90
55203;DHT22;41077;52.956;6.796;2022-12-07T00:24:00;3.70;99.90
55203;DHT22;41077;52.956;6.796;2022-12-07T00:26:29;3.80;99.90
55203;DHT22;41077;52.956;6.796;2022-12-07T00:28:58;3.90;99.90
55203;DHT22;41077;52.956;6.796;2022-12-07T00:31:27;3.90;99.90
55203;DHT22;41077;52.956;6.796;2022-12-07T00:33:53;3.90;99.90
55203;DHT22;41077;52.956;6.796;2022-12-07T00:36:20;3.90;99.90
55203;DHT22;41077;52.956;6.796;2022-12-07T00:38:47;3.90;99.90
55203;DHT22;41077;52.956;6.796;2022-12-07T00:41:15;3.90;99.90
55203;DHT22;41077;52.956;6.796;2022-12-07T00:43:42;3.80;99.90
55203;DHT22;41077;52.956;6.796;2022-12-07T00:46:09;3.80;99.90
55203;DHT22;41077;52.956;6.796;2022-12-07T00:48:35;3.80;99.90
55203;DHT22;41077;52.956;6.796;2022-12-07T00:51:01;3.80;99.90
55203;DHT22;41077;52.956;6.796;2022-12-07T00:53:27;3.80;99.90
55203;DHT22;41077;52.956;6.796;2022-12-07T00:55:54;3.80;99.90
55203;DHT22;41077;52.956;6.796;2022-12-07T00:58:21;3.80;99.90
55203;DHT22;41077;52.956;6.796;2022-12-07T01:00:46;3.70;99.90
55203;DHT22;41077;52.956;6.796;2022-12-07T01:03:13;3.80;99.90
55203;DHT22;41077;52.956;6.796;2022-12-07T01:05:40;3.70;99.90
55203;DHT22;41077;52.956;6.796;2022-12-07T01:08:13;3.70;99.90
55203;DHT22;41077;52.956;6.796;2022-12-07T01:10:39;3.70;99.90
55203;DHT22;41077;52.956;6.796;2022-12-07T01:13:05;3.70;99.90
55203;DHT22;41077;52.956;6.796;2022-12-07T01:15:30;3.70;99.90
55203;DHT22;41077;52.956;6.796;2022-12-07T01:17:56;3.70;99.90
55203;DHT22;41077;52.956;6.796;2022-12-07T01:20:22;3.70;99.90
55203;DHT22;41077;52.956;6.796;2022-12-07T01:22:47;3.60;99.90
55203;DHT22;41077;52.956;6.796;2022-12-07T01:25:13;3.60;99.90
55203;DHT22;41077;52.956;6.796;2022-12-07T01:27:38;3.60;99.90
55203;DHT22;41077;52.956;6.796;2022-12-07T01:30:06;3.60;99.90
55203;DHT22;41077;52.956;6.796;2022-12-07T01:32:32;3.60;99.90
55203;DHT22;41077;52.956;6.796;2022-12-07T01:34:58;3.60;99.90
55203;DHT22;41077;52.956;6.796;2022-12-07T01:37:23;3.60;99.90
55203;DHT22;41077;52.956;6.796;2022-12-07T01:39:50;3.60;99.90
55203;DHT22;41077;52.956;6.796;2022-12-07T01:42:17;3.60;99.90
55203;DHT22;41077;52.956;6.796;2022-12-07T01:47:55;3.60;99.90
55203;DHT22;41077;52.956;6.796;2022-12-07T01:50:24;3.60;99.90
55203;DHT22;41077;52.956;6.796;2022-12-07T01:52:52;3.60;99.90
55203;DHT22;41077;52.956;6.796;2022-12-07T01:55:18;3.60;99.90
55203;DHT22;41077;52.956;6.796;2022-12-07T01:57:48;3.60;99.90
55203;DHT22;41077;52.956;6.796;2022-12-07T02:00:15;3.60;99.90
55203;DHT22;41077;52.956;6.796;2022-12-07T02:02:46;3.60;99.90
55203;DHT22;41077;52.956;6.796;2022-12-07T02:05:13;3.60;99.90
55203;DHT22;41077;52.956;6.796;2022-12-07T02:07:39;3.60;99.90
55203;DHT22;41077;52.956;6.796;2022-12-07T02:10:23;3.60;99.90
55203;DHT22;41077;52.956;6.796;2022-12-07T02:12:56;3.60;99.90
55203;DHT22;41077;52.956;6.796;2022-12-07T02:15:31;3.60;99.90
55203;DHT22;41077;52.956;6.796;2022-12-07T02:18:16;3.60;99.90
55203;DHT22;41077;52.956;6.796;2022-12-07T02:26:30;3.80;99.90
55203;DHT22;41077;52.956;6.796;2022-12-07T02:31:43;3.80;99.90
55203;DHT22;41077;52.956;6.796;2022-12-07T02:34:21;3.80;99.90
55203;DHT22;41077;52.956;6.796;2022-12-07T02:36:54;3.80;99.90
55203;DHT22;41077;52.956;6.796;2022-12-07T02:39:28;3.80;99.90
55203;DHT22;41077;52.956;6.796;2022-12-07T02:42:07;3.80;99.90
55203;DHT22;41077;52.956;6.796;2022-12-07T02:44:35;3.80;99.90
55203;DHT22;41077;52.956;6.796;2022-12-07T02:47:04;3.80;99.90
55203;DHT22;41077;52.956;6.796;2022-12-07T02:49:32;3.80;99.90
55203;DHT22;41077;52.956;6.796;2022-12-07T02:51:58;3.80;99.90
55203;DHT22;41077;52.956;6.796;2022-12-07T02:54:23;3.80;99.90
55203;DHT22;41077;52.956;6.796;2022-12-07T02:59:59;3.70;99.90
55203;DHT22;41077;52.956;6.796;2022-12-07T03:08:07;3.80;99.90
55203;DHT22;41077;52.956;6.796;2022-12-07T03:10:56;3.80;99.90
55203;DHT22;41077;52.956;6.796;2022-12-07T03:16:22;3.80;99.90
55203;DHT22;41077;52.956;6.796;2022-12-07T03:21:26;3.80;99.90
55203;DHT22;41077;52.956;6.796;2022-12-07T03:23:55;3.90;99.90
55203;DHT22;41077;52.956;6.796;2022-12-07T03:26:24;3.90;99.90
55203;DHT22;41077;52.956;6.796;2022-12-07T03:28:56;4.00;99.90
55203;DHT22;41077;52.956;6.796;2022-12-07T03:31:31;4.00;99.90
55203;DHT22;41077;52.956;6.796;2022-12-07T03:34:12;4.00;99.90
55203;DHT22;41077;52.956;6.796;2022-12-07T03:36:53;4.00;99.90
55203;DHT22;41077;52.956;6.796;2022-12-07T03:42:11;4.00;99.90
55203;DHT22;41077;52.956;6.796;2022-12-07T03:44:38;4.00;99.90
55203;DHT22;41077;52.956;6.796;2022-12-07T03:48:00;4.00;99.90
55203;DHT22;41077;52.956;6.796;2022-12-07T03:50:42;4.00;99.90
55203;DHT22;41077;52.956;6.796;2022-12-07T03:55:42;4.00;99.90
55203;DHT22;41077;52.956;6.796;2022-12-07T03:58:16;4.00;99.90
55203;DHT22;41077;52.956;6.796;2022-12-07T04:00:44;4.00;99.90
55203;DHT22;41077;52.956;6.796;2022-12-07T04:03:10;4.00;99.90
55203;DHT22;41077;52.956;6.796;2022-12-07T04:05:37;4.00;99.90
55203;DHT22;41077;52.956;6.796;2022-12-07T04:08:04;4.00;99.90
55203;DHT22;41077;52.956;6.796;2022-12-07T04:10:30;4.10;99.90
55203;DHT22;41077;52.956;6.796;2022-12-07T04:12:56;4.00;99.90
55203;DHT22;41077;52.956;6.796;2022-12-07T04:15:22;4.00;99.90
55203;DHT22;41077;52.956;6.796;2022-12-07T04:17:48;4.00;99.90
55203;DHT22;41077;52.956;6.796;2022-12-07T04:20:14;4.00;99.90
55203;DHT22;41077;52.956;6.796;2022-12-07T04:22:39;4.00;99.90
55203;DHT22;41077;52.956;6.796;2022-12-07T04:25:05;4.00;99.90
55203;DHT22;41077;52.956;6.796;2022-12-07T04:27:31;4.00;99.90
55203;DHT22;41077;52.956;6.796;2022-12-07T04:29:57;4.00;99.90
55203;DHT22;41077;52.956;6.796;2022-12-07T04:32:23;4.00;99.90
55203;DHT22;41077;52.956;6.796;2022-12-07T04:34:49;3.90;99.90
55203;DHT22;41077;52.956;6.796;2022-12-07T04:37:14;3.90;99.90
55203;DHT22;41077;52.956;6.796;2022-12-07T04:39:40;3.90;99.90
55203;DHT22;41077;52.956;6.796;2022-12-07T04:42:06;3.90;99.90
55203;DHT22;41077;52.956;6.796;2022-12-07T04:44:32;3.80;99.90
55203;DHT22;41077;52.956;6.796;2022-12-07T04:46:57;3.80;99.90
55203;DHT22;41077;52.956;6.796;2022-12-07T04:49:24;3.70;99.90
55203;DHT22;41077;52.956;6.796;2022-12-07T04:51:50;3.70;99.90
55203;DHT22;41077;52.956;6.796;2022-12-07T04:54:16;3.60;99.90
55203;DHT22;41077;52.956;6.796;2022-12-07T04:56:42;3.60;99.90
55203;DHT22;41077;52.956;6.796;2022-12-07T04:59:09;3.50;99.90
55203;DHT22;41077;52.956;6.796;2022-12-07T05:01:35;3.50;99.90
55203;DHT22;41077;52.956;6.796;2022-12-07T05:04:01;3.50;99.90
55203;DHT22;41077;52.956;6.796;2022-12-07T05:06:27;3.40;99.90
55203;DHT22;41077;52.956;6.796;2022-12-07T05:08:52;3.40;99.90
55203;DHT22;41077;52.956;6.796;2022-12-07T05:11:18;3.30;99.90
55203;DHT22;41077;52.956;6.796;2022-12-07T05:14:04;3.30;99.90
55203;DHT22;41077;52.956;6.796;2022-12-07T05:16:29;3.30;99.90
55203;DHT22;41077;52.956;6.796;2022-12-07T05:18:55;3.30;99.90
55203;DHT22;41077;52.956;6.796;2022-12-07T05:21:21;3.30;99.90
55203;DHT22;41077;52.956;6.796;2022-12-07T05:23:47;3.30;99.90
55203;DHT22;41077;52.956;6.796;2022-12-07T05:26:12;3.30;99.90
55203;DHT22;41077;52.956;6.796;2022-12-07T05:28:38;3.30;99.90
55203;DHT22;41077;52.956;6.796;2022-12-07T05:31:04;3.40;99.90
55203;DHT22;41077;52.956;6.796;2022-12-07T05:33:30;3.40;99.90
55203;DHT22;41077;52.956;6.796;2022-12-07T05:35:55;3.40;99.90
55203;DHT22;41077;52.956;6.796;2022-12-07T05:38:21;3.40;99.90
55203;DHT22;41077;52.956;6.796;2022-12-07T05:40:47;3.40;99.90
55203;DHT22;41077;52.956;6.796;2022-12-07T05:43:12;3.40;99.90
55203;DHT22;41077;52.956;6.796;2022-12-07T05:45:38;3.30;99.90
55203;DHT22;41077;52.956;6.796;2022-12-07T05:48:03;3.30;99.90
55203;DHT22;41077;52.956;6.796;2022-12-07T05:50:29;3.20;99.90
55203;DHT22;41077;52.956;6.796;2022-12-07T05:52:55;3.20;99.90
55203;DHT22;41077;52.956;6.796;2022-12-07T05:55:20;3.20;99.90
55203;DHT22;41077;52.956;6.796;2022-12-07T05:57:46;3.20;99.90
55203;DHT22;41077;52.956;6.796;2022-12-07T06:00:41;3.10;99.90
55203;DHT22;41077;52.956;6.796;2022-12-07T06:03:06;3.10;99.90
55203;DHT22;41077;52.956;6.796;2022-12-07T06:05:32;3.00;99.90
55203;DHT22;41077;52.956;6.796;2022-12-07T06:07:58;3.00;99.90
55203;DHT22;41077;52.956;6.796;2022-12-07T06:10:23;3.00;99.90
55203;DHT22;41077;52.956;6.796;2022-12-07T06:12:49;3.00;99.90
55203;DHT22;41077;52.956;6.796;2022-12-07T06:15:15;3.00;99.90
55203;DHT22;41077;52.956;6.796;2022-12-07T06:17:40;3.00;99.90
55203;DHT22;41077;52.956;6.796;2022-12-07T06:20:07;3.00;99.90
55203;DHT22;41077;52.956;6.796;2022-12-07T06:22:32;3.10;99.90
55203;DHT22;41077;52.956;6.796;2022-12-07T06:24:58;3.10;99.90
55203;DHT22;41077;52.956;6.796;2022-12-07T06:27:24;3.10;99.90
55203;DHT22;41077;52.956;6.796;2022-12-07T06:29:49;3.10;99.90
55203;DHT22;41077;52.956;6.796;2022-12-07T06:32:15;3.10;99.90
55203;DHT22;41077;52.956;6.796;2022-12-07T06:34:41;3.10;99.90
55203;DHT22;41077;52.956;6.796;2022-12-07T06:37:07;3.10;99.90
55203;DHT22;41077;52.956;6.796;2022-12-07T06:39:32;3.10;99.90
55203;DHT22;41077;52.956;6.796;2022-12-07T06:41:58;3.10;99.90
55203;DHT22;41077;52.956;6.796;2022-12-07T06:44:24;3.00;99.90
55203;DHT22;41077;52.956;6.796;2022-12-07T06:46:50;3.00;99.90
55203;DHT22;41077;52.956;6.796;2022-12-07T06:49:16;3.00;99.90
55203;DHT22;41077;52.956;6.796;2022-12-07T06:51:42;3.10;99.90
55203;DHT22;41077;52.956;6.796;2022-12-07T06:54:12;3.10;99.90
55203;DHT22;41077;52.956;6.796;2022-12-07T06:56:38;3.20;99.90
55203;DHT22;41077;52.956;6.796;2022-12-07T06:59:07;3.20;99.90
55203;DHT22;41077;52.956;6.796;2022-12-07T07:01:33;3.20;99.90
55203;DHT22;41077;52.956;6.796;2022-12-07T07:03:59;3.20;99.90
55203;DHT22;41077;52.956;6.796;2022-12-07T07:06:25;3.20;99.90
55203;DHT22;41077;52.956;6.796;2022-12-07T07:08:51;3.20;99.90
55203;DHT22;41077;52.956;6.796;2022-12-07T07:11:17;3.20;99.90
55203;DHT22;41077;52.956;6.796;2022-12-07T07:13:42;3.30;99.90
55203;DHT22;41077;52.956;6.796;2022-12-07T07:16:08;3.30;99.90
55203;DHT22;41077;52.956;6.796;2022-12-07T07:18:34;3.30;99.90
55203;DHT22;41077;52.956;6.796;2022-12-07T07:21:00;3.30;99.90
55203;DHT22;41077;52.956;6.796;2022-12-07T07:23:26;3.20;99.90
55203;DHT22;41077;52.956;6.796;2022-12-07T07:25:52;3.20;99.90
55203;DHT22;41077;52.956;6.796;2022-12-07T07:28:18;3.20;99.90
55203;DHT22;41077;52.956;6.796;2022-12-07T07:30:43;3.20;99.90
55203;DHT22;41077;52.956;6.796;2022-12-07T07:33:10;3.20;99.90
55203;DHT22;41077;52.956;6.796;2022-12-07T07:35:36;3.10;99.90
55203;DHT22;41077;52.956;6.796;2022-12-07T07:38:02;3.10;99.90
55203;DHT22;41077;52.956;6.796;2022-12-07T07:40:28;3.10;99.90
55203;DHT22;41077;52.956;6.796;2022-12-07T07:42:56;3.00;99.90
55203;DHT22;41077;52.956;6.796;2022-12-07T07:45:24;3.00;99.90
55203;DHT22;41077;52.956;6.796;2022-12-07T07:47:51;3.10;99.90
55203;DHT22;41077;52.956;6.796;2022-12-07T07:50:16;3.10;99.90
55203;DHT22;41077;52.956;6.796;2022-12-07T07:52:43;3.10;99.90
55203;DHT22;41077;52.956;6.796;2022-12-07T07:55:09;3.10;99.90
55203;DHT22;41077;52.956;6.796;2022-12-07T07:57:39;3.20;99.90
55203;DHT22;41077;52.956;6.796;2022-12-07T08:00:11;3.20;99.90
55203;DHT22;41077;52.956;6.796;2022-12-07T08:02:37;3.30;99.90
55203;DHT22;41077;52.956;6.796;2022-12-07T08:05:03;3.30;99.90
55203;DHT22;41077;52.956;6.796;2022-12-07T08:07:28;3.30;99.90
55203;DHT22;41077;52.956;6.796;2022-12-07T08:09:54;3.30;99.90
55203;DHT22;41077;52.956;6.796;2022-12-07T08:12:20;3.40;99.90
55203;DHT22;41077;52.956;6.796;2022-12-07T08:14:45;3.30;99.90
55203;DHT22;41077;52.956;6.796;2022-12-07T08:17:12;3.30;99.90
55203;DHT22;41077;52.956;6.796;2022-12-07T08:19:38;3.30;99.90
55203;DHT22;41077;52.956;6.796;2022-12-07T08:22:04;3.30;99.90
55203;DHT22;41077;52.956;6.796;2022-12-07T08:24:29;3.30;99.90
55203;DHT22;41077;52.956;6.796;2022-12-07T08:26:55;3.30;99.90
55203;DHT22;41077;52.956;6.796;2022-12-07T08:29:21;3.20;99.90
55203;DHT22;41077;52.956;6.796;2022-12-07T08:31:47;3.20;99.90
55203;DHT22;41077;52.956;6.796;2022-12-07T08:34:13;3.20;99.90
55203;DHT22;41077;52.956;6.796;2022-12-07T08:36:39;3.10;99.90
55203;DHT22;41077;52.956;6.796;2022-12-07T08:39:05;3.10;99.90
55203;DHT22;41077;52.956;6.796;2022-12-07T08:41:31;3.10;99.90
55203;DHT22;41077;52.956;6.796;2022-12-07T08:43:57;3.10;99.90
55203;DHT22;41077;52.956;6.796;2022-12-07T08:46:36;3.10;99.90
55203;DHT22;41077;52.956;6.796;2022-12-07T08:49:13;3.20;99.90
55203;DHT22;41077;52.956;6.796;2022-12-07T08:51:42;3.30;99.90
55203;DHT22;41077;52.956;6.796;2022-12-07T08:54:11;3.30;99.90
55203;DHT22;41077;52.956;6.796;2022-12-07T08:56:39;3.40;99.90
55203;DHT22;41077;52.956;6.796;2022-12-07T08:59:05;3.50;99.90
55203;DHT22;41077;52.956;6.796;2022-12-07T09:01:31;3.50;99.90
55203;DHT22;41077;52.956;6.796;2022-12-07T09:03:57;3.50;99.90
55203;DHT22;41077;52.956;6.796;2022-12-07T09:06:22;3.60;99.90
55203;DHT22;41077;52.956;6.796;2022-12-07T09:08:51;3.60;99.90
55203;DHT22;41077;52.956;6.796;2022-12-07T09:11:19;3.70;99.90
55203;DHT22;41077;52.956;6.796;2022-12-07T09:13:45;3.70;99.90
55203;DHT22;41077;52.956;6.796;2022-12-07T09:16:10;3.80;99.90
55203;DHT22;41077;52.956;6.796;2022-12-07T09:18:36;3.80;99.90
55203;DHT22;41077;52.956;6.796;2022-12-07T09:21:03;3.80;99.90
55203;DHT22;41077;52.956;6.796;2022-12-07T09:23:29;3.80;99.90
55203;DHT22;41077;52.956;6.796;2022-12-07T09:25:58;3.80;99.90
55203;DHT22;41077;52.956;6.796;2022-12-07T09:28:24;3.80;99.90
55203;DHT22;41077;52.956;6.796;2022-12-07T09:30:49;3.80;99.90
55203;DHT22;41077;52.956;6.796;2022-12-07T09:33:15;3.90;99.90
55203;DHT22;41077;52.956;6.796;2022-12-07T09:35:45;3.90;99.90
55203;DHT22;41077;52.956;6.796;2022-12-07T09:38:11;3.90;99.90
55203;DHT22;41077;52.956;6.796;2022-12-07T09:40:37;3.90;99.90
55203;DHT22;41077;52.956;6.796;2022-12-07T09:43:03;4.10;99.90
55203;DHT22;41077;52.956;6.796;2022-12-07T09:45:34;4.10;99.90
55203;DHT22;41077;52.956;6.796;2022-12-07T09:48:02;4.20;99.90
55203;DHT22;41077;52.956;6.796;2022-12-07T09:50:29;4.20;99.90
55203;DHT22;41077;52.956;6.796;2022-12-07T09:53:07;4.30;99.90
55203;DHT22;41077;52.956;6.796;2022-12-07T09:55:33;4.40;99.90
55203;DHT22;41077;52.956;6.796;2022-12-07T09:58:02;4.40;99.90
55203;DHT22;41077;52.956;6.796;2022-12-07T10:00:29;4.40;99.90
55203;DHT22;41077;52.956;6.796;2022-12-07T10:02:59;4.50;99.90
55203;DHT22;41077;52.956;6.796;2022-12-07T10:05:27;4.50;99.90
55203;DHT22;41077;52.956;6.796;2022-12-07T10:07:54;4.50;99.90
55203;DHT22;41077;52.956;6.796;2022-12-07T10:10:34;4.60;99.90
55203;DHT22;41077;52.956;6.796;2022-12-07T10:13:08;4.60;99.90
55203;DHT22;41077;52.956;6.796;2022-12-07T10:20:47;4.50;99.90
55203;DHT22;41077;52.956;6.796;2022-12-07T10:23:17;4.60;99.90
55203;DHT22;41077;52.956;6.796;2022-12-07T10:25:44;4.60;99.90
55203;DHT22;41077;52.956;6.796;2022-12-07T10:28:18;4.60;99.90
55203;DHT22;41077;52.956;6.796;2022-12-07T10:33:40;4.60;99.90
55203;DHT22;41077;52.956;6.796;2022-12-07T10:39:11;4.60;99.90
55203;DHT22;41077;52.956;6.796;2022-12-07T10:41:54;4.60;99.90
55203;DHT22;41077;52.956;6.796;2022-12-07T10:44:23;4.60;99.90
55203;DHT22;41077;52.956;6.796;2022-12-07T10:47:12;4.60;99.90
55203;DHT22;41077;52.956;6.796;2022-12-07T10:55:45;4.60;99.90
55203;DHT22;41077;52.956;6.796;2022-12-07T11:09:48;4.80;99.90
55203;DHT22;41077;52.956;6.796;2022-12-07T11:15:41;4.90;99.90
55203;DHT22;41077;52.956;6.796;2022-12-07T11:21:23;4.90;99.90
55203;DHT22;41077;52.956;6.796;2022-12-07T11:35:18;5.10;99.90
55203;DHT22;41077;52.956;6.796;2022-12-07T11:37:47;5.10;99.90
55203;DHT22;41077;52.956;6.796;2022-12-07T11:40:31;5.20;99.90
55203;DHT22;41077;52.956;6.796;2022-12-07T11:43:06;5.20;99.90
55203;DHT22;41077;52.956;6.796;2022-12-07T11:45:43;5.10;99.90
55203;DHT22;41077;52.956;6.796;2022-12-07T11:48:25;5.10;99.90
55203;DHT22;41077;52.956;6.796;2022-12-07T11:50:59;5.00;99.90
55203;DHT22;41077;52.956;6.796;2022-12-07T11:53:39;4.80;99.90
55203;DHT22;41077;52.956;6.796;2022-12-07T11:56:16;4.70;99.90
55203;DHT22;41077;52.956;6.796;2022-12-07T12:14:54;4.20;99.90
55203;DHT22;41077;52.956;6.796;2022-12-07T12:22:42;4.40;99.90
55203;DHT22;41077;52.956;6.796;2022-12-07T12:25:21;4.40;99.90
55203;DHT22;41077;52.956;6.796;2022-12-07T12:27:50;4.50;99.90
55203;DHT22;41077;52.956;6.796;2022-12-07T12:30:36;4.60;99.90
55203;DHT22;41077;52.956;6.796;2022-12-07T12:33:04;4.70;99.90
55203;DHT22;41077;52.956;6.796;2022-12-07T12:35:36;4.80;99.90
55203;DHT22;41077;52.956;6.796;2022-12-07T12:38:29;4.80;99.90
55203;DHT22;41077;52.956;6.796;2022-12-07T12:40:56;4.90;99.90
55203;DHT22;41077;52.956;6.796;2022-12-07T12:43:44;4.90;99.90
55203;DHT22;41077;52.956;6.796;2022-12-07T12:49:43;5.10;99.90
55203;DHT22;41077;52.956;6.796;2022-12-07T12:55:16;5.20;99.90
55203;DHT22;41077;52.956;6.796;2022-12-07T12:57:53;5.20;99.90
55203;DHT22;41077;52.956;6.796;2022-12-07T13:00:33;5.30;99.90
55203;DHT22;41077;52.956;6.796;2022-12-07T13:02:59;5.20;99.90
55203;DHT22;41077;52.956;6.796;2022-12-07T13:05:28;5.20;99.90
55203;DHT22;41077;52.956;6.796;2022-12-07T13:08:02;5.20;99.90
55203;DHT22;41077;52.956;6.796;2022-12-07T13:10:37;5.20;99.90
55203;DHT22;41077;52.956;6.796;2022-12-07T13:15:44;5.30;99.90
55203;DHT22;41077;52.956;6.796;2022-12-07T13:28:22;5.40;99.90
55203;DHT22;41077;52.956;6.796;2022-12-07T13:31:14;5.40;99.90
55203;DHT22;41077;52.956;6.796;2022-12-07T13:33:46;5.30;99.90
55203;DHT22;41077;52.956;6.796;2022-12-07T13:36:20;5.20;99.90
55203;DHT22;41077;52.956;6.796;2022-12-07T13:41:19;5.10;99.90
55203;DHT22;41077;52.956;6.796;2022-12-07T13:43:52;5.10;99.90
55203;DHT22;41077;52.956;6.796;2022-12-07T13:47:06;5.00;99.90
55203;DHT22;41077;52.956;6.796;2022-12-07T13:49:46;5.00;99.90
55203;DHT22;41077;52.956;6.796;2022-12-07T13:52:16;4.90;99.90
55203;DHT22;41077;52.956;6.796;2022-12-07T13:54:48;4.80;99.90
55203;DHT22;41077;52.956;6.796;2022-12-07T13:57:17;4.80;99.90
55203;DHT22;41077;52.956;6.796;2022-12-07T13:59:43;4.70;99.90
55203;DHT22;41077;52.956;6.796;2022-12-07T14:02:27;4.70;99.90
55203;DHT22;41077;52.956;6.796;2022-12-07T14:05:10;4.60;99.90
55203;DHT22;41077;52.956;6.796;2022-12-07T14:08:02;4.60;99.90
55203;DHT22;41077;52.956;6.796;2022-12-07T14:12:55;4.40;99.90
55203;DHT22;41077;52.956;6.796;2022-12-07T14:15:23;4.40;99.90
55203;DHT22;41077;52.956;6.796;2022-12-07T14:17:54;4.40;99.90
55203;DHT22;41077;52.956;6.796;2022-12-07T14:22:58;4.30;99.90
55203;DHT22;41077;52.956;6.796;2022-12-07T14:25:26;4.30;99.90
55203;DHT22;41077;52.956;6.796;2022-12-07T14:30:19;4.30;99.90
55203;DHT22;41077;52.956;6.796;2022-12-07T14:32:45;4.30;99.90
55203;DHT22;41077;52.956;6.796;2022-12-07T14:35:15;4.20;99.90
55203;DHT22;41077;52.956;6.796;2022-12-07T14:37:43;4.20;99.90
55203;DHT22;41077;52.956;6.796;2022-12-07T14:40:13;4.20;99.90
55203;DHT22;41077;52.956;6.796;2022-12-07T14:42:39;4.20;99.90
55203;DHT22;41077;52.956;6.796;2022-12-07T14:45:10;4.20;99.90
55203;DHT22;41077;52.956;6.796;2022-12-07T14:47:38;4.10;99.90
55203;DHT22;41077;52.956;6.796;2022-12-07T14:50:04;4.10;99.90
55203;DHT22;41077;52.956;6.796;2022-12-07T14:52:30;4.10;99.90
55203;DHT22;41077;52.956;6.796;2022-12-07T14:54:56;4.10;99.90
55203;DHT22;41077;52.956;6.796;2022-12-07T14:57:23;4.10;99.90
55203;DHT22;41077;52.956;6.796;2022-12-07T14:59:49;4.00;99.90
55203;DHT22;41077;52.956;6.796;2022-12-07T15:02:15;4.00;99.90
55203;DHT22;41077;52.956;6.796;2022-12-07T15:04:41;3.90;99.90
55203;DHT22;41077;52.956;6.796;2022-12-07T15:07:15;3.90;99.90
55203;DHT22;41077;52.956;6.796;2022-12-07T15:09:42;3.90;99.90
55203;DHT22;41077;52.956;6.796;2022-12-07T15:12:08;3.90;99.90
55203;DHT22;41077;52.956;6.796;2022-12-07T15:14:34;3.90;99.90
55203;DHT22;41077;52.956;6.796;2022-12-07T15:16:59;3.80;99.90
55203;DHT22;41077;52.956;6.796;2022-12-07T15:19:25;3.80;99.90
55203;DHT22;41077;52.956;6.796;2022-12-07T15:21:52;3.80;99.90
55203;DHT22;41077;52.956;6.796;2022-12-07T15:24:18;3.80;99.90
55203;DHT22;41077;52.956;6.796;2022-12-07T15:26:44;3.80;99.90
55203;DHT22;41077;52.956;6.796;2022-12-07T15:29:10;3.80;99.90
55203;DHT22;41077;52.956;6.796;2022-12-07T15:31:37;3.90;99.90
55203;DHT22;41077;52.956;6.796;2022-12-07T15:34:03;3.90;99.90
55203;DHT22;41077;52.956;6.796;2022-12-07T15:36:31;3.90;99.90
55203;DHT22;41077;52.956;6.796;2022-12-07T15:38:57;3.90;99.90
55203;DHT22;41077;52.956;6.796;2022-12-07T15:41:23;3.90;99.90
55203;DHT22;41077;52.956;6.796;2022-12-07T15:43:50;3.90;99.90
55203;DHT22;41077;52.956;6.796;2022-12-07T15:46:36;3.90;99.90
55203;DHT22;41077;52.956;6.796;2022-12-07T15:49:03;3.90;99.90
55203;DHT22;41077;52.956;6.796;2022-12-07T15:51:29;3.90;99.90
55203;DHT22;41077;52.956;6.796;2022-12-07T15:53:57;3.90;99.90
55203;DHT22;41077;52.956;6.796;2022-12-07T15:56:23;3.80;99.90
55203;DHT22;41077;52.956;6.796;2022-12-07T15:58:49;3.80;99.90
55203;DHT22;41077;52.956;6.796;2022-12-07T16:01:17;3.80;99.90
55203;DHT22;41077;52.956;6.796;2022-12-07T16:03:44;3.80;99.90
55203;DHT22;41077;52.956;6.796;2022-12-07T16:06:10;3.70;99.90
55203;DHT22;41077;52.956;6.796;2022-12-07T16:08:36;3.70;99.90
55203;DHT22;41077;52.956;6.796;2022-12-07T16:11:05;3.70;99.90
55203;DHT22;41077;52.956;6.796;2022-12-07T16:13:31;3.70;99.90
55203;DHT22;41077;52.956;6.796;2022-12-07T16:15:57;3.70;99.90
55203;DHT22;41077;52.956;6.796;2022-12-07T16:18:22;3.60;99.90
55203;DHT22;41077;52.956;6.796;2022-12-07T16:20:49;3.60;99.90
55203;DHT22;41077;52.956;6.796;2022-12-07T16:23:15;3.60;99.90
55203;DHT22;41077;52.956;6.796;2022-12-07T16:25:41;3.60;99.90
55203;DHT22;41077;52.956;6.796;2022-12-07T16:28:07;3.60;99.90
55203;DHT22;41077;52.956;6.796;2022-12-07T16:30:33;3.60;99.90
55203;DHT22;41077;52.956;6.796;2022-12-07T16:32:59;3.60;99.90
55203;DHT22;41077;52.956;6.796;2022-12-07T16:35:24;3.60;99.90
55203;DHT22;41077;52.956;6.796;2022-12-07T16:37:50;3.60;99.90
55203;DHT22;41077;52.956;6.796;2022-12-07T16:40:16;3.70;99.90
55203;DHT22;41077;52.956;6.796;2022-12-07T16:42:41;3.70;99.90
55203;DHT22;41077;52.956;6.796;2022-12-07T16:45:07;3.70;99.90
55203;DHT22;41077;52.956;6.796;2022-12-07T16:47:33;3.70;99.90
55203;DHT22;41077;52.956;6.796;2022-12-07T16:50:02;3.70;99.90
55203;DHT22;41077;52.956;6.796;2022-12-07T16:52:27;3.70;99.90
55203;DHT22;41077;52.956;6.796;2022-12-07T16:54:53;3.70;99.90
55203;DHT22;41077;52.956;6.796;2022-12-07T16:57:19;3.70;99.90
55203;DHT22;41077;52.956;6.796;2022-12-07T16:59:45;3.70;99.90
55203;DHT22;41077;52.956;6.796;2022-12-07T17:02:11;3.70;99.90
55203;DHT22;41077;52.956;6.796;2022-12-07T17:04:37;3.70;99.90
55203;DHT22;41077;52.956;6.796;2022-12-07T17:07:05;3.70;99.90
55203;DHT22;41077;52.956;6.796;2022-12-07T17:09:31;3.70;99.90
55203;DHT22;41077;52.956;6.796;2022-12-07T17:11:57;3.70;99.90
55203;DHT22;41077;52.956;6.796;2022-12-07T17:14:23;3.70;99.90
55203;DHT22;41077;52.956;6.796;2022-12-07T17:17:07;3.70;99.90
55203;DHT22;41077;52.956;6.796;2022-12-07T17:19:32;3.60;99.90
55203;DHT22;41077;52.956;6.796;2022-12-07T17:21:58;3.70;99.90
55203;DHT22;41077;52.956;6.796;2022-12-07T17:24:24;3.70;99.90
55203;DHT22;41077;52.956;6.796;2022-12-07T17:26:50;3.70;99.90
55203;DHT22;41077;52.956;6.796;2022-12-07T17:29:17;3.60;99.90
55203;DHT22;41077;52.956;6.796;2022-12-07T17:31:43;3.60;99.90
55203;DHT22;41077;52.956;6.796;2022-12-07T17:34:14;3.70;99.90
55203;DHT22;41077;52.956;6.796;2022-12-07T17:36:40;3.60;99.90
55203;DHT22;41077;52.956;6.796;2022-12-07T17:39:08;3.60;99.90
55203;DHT22;41077;52.956;6.796;2022-12-07T17:41:35;3.60;99.90
55203;DHT22;41077;52.956;6.796;2022-12-07T17:44:20;3.60;99.90
55203;DHT22;41077;52.956;6.796;2022-12-07T17:46:48;3.60;99.90
55203;DHT22;41077;52.956;6.796;2022-12-07T17:49:14;3.60;99.90
55203;DHT22;41077;52.956;6.796;2022-12-07T17:51:40;3.60;99.90
55203;DHT22;41077;52.956;6.796;2022-12-07T17:54:24;3.50;99.90
55203;DHT22;41077;52.956;6.796;2022-12-07T17:56:50;3.60;99.90
55203;DHT22;41077;52.956;6.796;2022-12-07T17:59:16;3.50;99.90
55203;DHT22;41077;52.956;6.796;2022-12-07T18:01:42;3.50;99.90
55203;DHT22;41077;52.956;6.796;2022-12-07T18:04:08;3.50;99.90